createdAt,value
2022-10-24T00:01:58.636Z,0.93
2022-10-24T00:06:00.050Z,1.15
2022-10-24T00:10:01.513Z,1.15
2022-10-24T00:14:03.655Z,1.20
2022-10-24T00:18:05.357Z,1.45
2022-10-24T00:22:06.769Z,1.52
2022-10-24T00:26:08.389Z,1.00
2022-10-24T00:30:10.267Z,0.93
2022-10-24T00:34:11.900Z,1.13
2022-10-24T00:38:13.598Z,1.63
2022-10-24T00:42:15.076Z,1.20
2022-10-24T00:46:17.995Z,0.90
2022-10-24T00:50:19.419Z,1.15
2022-10-24T00:54:21.246Z,0.82
2022-10-24T00:58:27.454Z,0.90
2022-10-24T01:02:28.884Z,0.85
2022-10-24T01:07:02.588Z,1.02
2022-10-24T01:11:16.481Z,1.20
2022-10-24T01:15:24.747Z,1.02
2022-10-24T01:19:49.714Z,0.90
2022-10-24T01:24:02.672Z,0.82
2022-10-24T01:28:11.853Z,0.70
2022-10-24T01:32:26.192Z,1.05
2022-10-24T01:36:37.474Z,0.68
2022-10-24T01:40:53.700Z,0.90
2022-10-24T01:44:57.635Z,0.88
2022-10-24T01:49:02.782Z,0.73
2022-10-24T01:53:05.357Z,1.20
2022-10-24T01:57:07.558Z,0.98
2022-10-24T02:01:16.075Z,0.80
2022-10-24T02:05:34.118Z,0.82
2022-10-24T02:09:38.400Z,1.27
2022-10-24T02:13:51.809Z,1.40
2022-10-24T02:17:54.734Z,1.15
2022-10-24T02:22:21.618Z,0.95
2022-10-24T02:26:52.223Z,1.52
2022-10-24T02:35:03.717Z,1.02
2022-10-24T02:39:08.243Z,1.80
2022-10-24T02:43:12.616Z,1.58
2022-10-24T02:47:15.272Z,1.40
2022-10-24T02:51:18.117Z,1.55
2022-10-24T02:55:19.651Z,1.15
2022-10-24T02:59:21.117Z,1.13
2022-10-24T03:03:22.536Z,1.10
2022-10-24T03:07:24.183Z,1.48
2022-10-24T03:11:27.736Z,1.67
2022-10-24T03:15:29.500Z,1.20
2022-10-24T03:19:30.917Z,0.77
2022-10-24T03:23:32.469Z,1.13
2022-10-24T03:27:34.540Z,0.93
2022-10-24T03:31:36.437Z,0.88
2022-10-24T03:35:38.228Z,0.90
2022-10-24T03:39:39.640Z,1.00
2022-10-24T03:43:41.052Z,1.35
2022-10-24T03:47:42.461Z,1.27
2022-10-24T03:51:43.871Z,0.85
2022-10-24T03:55:45.303Z,1.10
2022-10-24T03:59:46.767Z,1.13
2022-10-24T04:03:48.170Z,1.30
2022-10-24T04:07:49.638Z,1.20
2022-10-24T04:11:53.532Z,1.67
2022-10-24T04:15:54.972Z,1.30
2022-10-24T04:19:56.393Z,1.58
2022-10-24T04:23:58.195Z,1.52
2022-10-24T04:27:59.614Z,1.52
2022-10-24T04:32:01.385Z,1.65
2022-10-24T04:36:03.005Z,1.85
2022-10-24T04:40:04.856Z,1.33
2022-10-24T04:44:06.293Z,0.88
2022-10-24T04:48:07.854Z,1.35
2022-10-24T04:52:09.302Z,1.80
2022-10-24T04:56:10.891Z,1.85
2022-10-24T05:00:12.835Z,1.63
2022-10-24T05:04:14.485Z,1.65
2022-10-24T05:08:17.623Z,1.63
2022-10-24T05:16:25.557Z,1.98
2022-10-24T05:20:27.171Z,2.03
2022-10-24T05:24:30.048Z,1.55
2022-10-24T05:28:31.485Z,1.55
2022-10-24T05:32:34.864Z,1.90
2022-10-24T05:36:38.739Z,1.45
2022-10-24T05:40:40.146Z,1.15
2022-10-24T05:44:41.651Z,2.10
2022-10-24T05:48:43.140Z,1.52
2022-10-24T05:52:47.155Z,1.10
2022-10-24T05:56:48.856Z,1.38
2022-10-24T06:00:54.053Z,1.17
2022-10-24T06:04:57.001Z,1.08
2022-10-24T06:08:58.444Z,1.25
2022-10-24T06:12:59.917Z,0.95
2022-10-24T06:17:01.475Z,1.10
2022-10-24T06:21:04.802Z,1.48
2022-10-24T06:25:06.419Z,1.30
2022-10-24T06:29:07.905Z,1.20
2022-10-24T06:33:09.923Z,1.15
2022-10-24T06:37:11.406Z,0.90
2022-10-24T06:41:13.874Z,1.50
2022-10-24T06:45:15.783Z,0.73
2022-10-24T06:49:17.659Z,1.20
2022-10-24T06:57:25.540Z,1.33
2022-10-24T07:01:27.753Z,1.42
2022-10-24T07:05:29.261Z,0.95
2022-10-24T07:09:30.723Z,1.20
2022-10-24T07:13:32.323Z,0.90
2022-10-24T07:17:39.814Z,1.20
2022-10-24T07:21:41.487Z,0.80
2022-10-24T07:25:42.958Z,0.82
2022-10-24T07:29:44.573Z,1.20
2022-10-24T07:33:46.061Z,0.90
2022-10-24T07:37:47.672Z,1.05
2022-10-24T07:41:49.289Z,1.17
2022-10-24T07:45:52.041Z,1.00
2022-10-24T07:49:53.819Z,1.42
2022-10-24T07:53:57.575Z,1.73
2022-10-24T07:57:58.971Z,1.35
2022-10-24T08:02:00.363Z,1.30
2022-10-24T08:06:05.839Z,1.10
2022-10-24T08:10:10.299Z,0.90
2022-10-24T08:14:11.951Z,1.35
2022-10-24T08:18:13.436Z,1.20
2022-10-24T08:22:15.295Z,1.40
2022-10-24T08:26:19.708Z,1.08
2022-10-24T08:30:21.839Z,1.48
2022-10-24T08:34:23.535Z,0.93
2022-10-24T08:38:25.449Z,1.00
2022-10-24T08:42:26.892Z,1.08
2022-10-24T08:46:55.640Z,0.73
2022-10-24T08:51:07.263Z,1.23
2022-10-24T08:55:48.266Z,1.48
2022-10-24T08:59:38.429Z,0.98
2022-10-24T09:03:57.968Z,0.85
2022-10-24T09:08:10.475Z,1.30
2022-10-24T09:12:14.962Z,1.00
2022-10-24T09:16:22.553Z,1.05
2022-10-24T09:20:30.339Z,0.80
2022-10-24T09:24:51.115Z,0.65
2022-10-24T09:28:55.020Z,0.98
2022-10-24T09:32:59.339Z,1.00
2022-10-24T09:37:00.800Z,0.75
2022-10-24T09:41:06.366Z,0.82
2022-10-24T09:45:27.898Z,0.93
2022-10-24T09:49:35.741Z,1.05
2022-10-24T09:53:59.307Z,0.75
2022-10-24T09:58:05.193Z,1.10
2022-10-24T10:02:24.043Z,0.80
2022-10-24T10:06:25.604Z,1.02
2022-10-24T10:10:34.202Z,0.82
2022-10-24T10:14:41.048Z,1.27
2022-10-24T10:18:46.306Z,1.00
2022-10-24T10:22:47.748Z,0.93
2022-10-24T10:26:49.167Z,0.82
2022-10-24T10:30:56.348Z,0.82
2022-10-24T10:35:11.353Z,0.88
2022-10-24T10:39:21.309Z,1.00
2022-10-24T10:43:48.072Z,0.80
2022-10-24T10:48:09.345Z,1.02
2022-10-24T10:52:29.650Z,1.20
2022-10-24T10:56:45.444Z,1.13
2022-10-24T11:01:08.720Z,1.00
2022-10-24T11:05:32.434Z,1.25
2022-10-24T11:09:39.482Z,0.75
2022-10-24T11:13:48.051Z,0.98
2022-10-24T11:18:00.627Z,1.48
2022-10-24T11:22:04.925Z,1.10
2022-10-24T11:26:31.205Z,0.80
2022-10-24T11:31:01.031Z,1.10
2022-10-24T11:35:27.868Z,1.15
2022-10-24T11:39:36.357Z,1.05
2022-10-24T11:43:44.163Z,0.85
2022-10-24T11:48:11.650Z,1.17
2022-10-24T11:52:22.971Z,0.65
2022-10-24T11:56:47.038Z,0.75
2022-10-24T12:00:51.585Z,1.13
2022-10-24T12:05:00.580Z,1.08
2022-10-24T12:09:14.491Z,0.98
2022-10-24T12:13:40.359Z,0.55
2022-10-24T12:17:57.092Z,0.50
2022-10-24T12:22:02.105Z,1.58
2022-10-24T12:26:27.260Z,1.25
2022-10-24T12:30:32.235Z,0.60
2022-10-24T12:34:48.910Z,0.75
2022-10-24T12:38:56.820Z,1.00
2022-10-24T12:42:58.194Z,1.10
2022-10-24T12:47:01.702Z,1.00
2022-10-24T12:51:06.087Z,1.13
2022-10-24T12:55:39.368Z,0.60
2022-10-24T12:59:51.402Z,1.30
2022-10-24T13:04:07.828Z,0.90
2022-10-24T13:08:42.848Z,0.68
2022-10-24T13:13:25.241Z,0.68
2022-10-24T13:17:40.803Z,0.73
2022-10-24T13:21:57.517Z,0.50
2022-10-24T13:25:59.866Z,0.60
2022-10-24T13:30:04.843Z,0.70
2022-10-24T13:34:50.773Z,0.68
2022-10-24T13:38:56.166Z,0.65
2022-10-24T13:43:07.461Z,0.77
2022-10-24T13:47:18.845Z,0.93
2022-10-24T13:51:26.879Z,0.70
2022-10-24T13:55:42.262Z,0.75
2022-10-24T13:59:43.724Z,0.93
2022-10-24T14:03:48.013Z,0.82
2022-10-24T14:07:49.839Z,1.05
2022-10-24T14:11:51.388Z,0.77
2022-10-24T14:16:01.660Z,0.75
2022-10-24T14:20:09.599Z,1.00
2022-10-24T14:24:15.400Z,1.25
2022-10-24T14:28:20.493Z,0.98
2022-10-24T14:32:22.487Z,0.93
2022-10-24T14:36:27.597Z,1.40
2022-10-24T14:40:30.809Z,1.10
2022-10-24T14:44:35.009Z,1.00
2022-10-24T14:48:43.566Z,0.77
2022-10-24T14:52:45.522Z,0.60
2022-10-24T14:56:48.118Z,1.15
2022-10-24T15:00:49.776Z,0.75
2022-10-24T15:04:52.947Z,0.80
2022-10-24T15:09:04.901Z,0.60
2022-10-24T15:13:21.455Z,0.68
2022-10-24T15:17:32.425Z,0.60
2022-10-24T15:21:38.875Z,0.63
2022-10-24T15:25:42.934Z,0.80
2022-10-24T15:29:44.650Z,0.88
2022-10-24T15:33:47.627Z,0.60
2022-10-24T15:38:12.530Z,0.98
2022-10-24T15:42:15.577Z,0.60
2022-10-24T15:46:19.278Z,1.10
2022-10-24T15:50:24.165Z,0.90
2022-10-24T15:54:29.266Z,0.73
2022-10-24T15:58:30.688Z,0.93
2022-10-24T16:02:32.192Z,0.73
2022-10-24T16:06:34.707Z,0.73
2022-10-24T16:10:36.124Z,0.50
2022-10-24T16:14:37.555Z,0.52
2022-10-24T16:18:39.124Z,0.40
2022-10-24T16:22:41.787Z,0.60
2022-10-24T16:26:43.286Z,0.70
2022-10-24T16:30:45.279Z,0.57
2022-10-24T16:34:48.908Z,0.55
2022-10-24T16:38:50.435Z,0.60
2022-10-24T16:42:53.233Z,0.90
2022-10-24T16:46:54.659Z,1.15
2022-10-24T16:50:56.104Z,0.57
2022-10-24T16:54:57.604Z,0.80
2022-10-24T16:58:59.048Z,0.40
2022-10-24T17:03:00.513Z,0.57
2022-10-24T17:07:04.264Z,0.68
2022-10-24T17:11:20.204Z,0.80
2022-10-24T17:15:27.469Z,0.60
2022-10-24T17:19:29.177Z,0.50
2022-10-24T17:23:30.744Z,0.75
2022-10-24T17:27:32.372Z,0.55
2022-10-24T17:31:35.017Z,0.30
2022-10-24T17:35:40.436Z,0.50
2022-10-24T17:39:49.287Z,0.75
2022-10-24T17:43:51.360Z,1.07
2022-10-24T17:47:53.409Z,0.60
2022-10-24T17:51:54.872Z,0.80
2022-10-24T17:55:56.276Z,0.60
2022-10-24T17:59:57.655Z,0.50
2022-10-24T18:03:59.063Z,0.47
2022-10-24T18:08:00.495Z,0.50
2022-10-24T18:12:02.754Z,0.40
2022-10-24T18:16:11.926Z,0.70
2022-10-24T18:20:15.498Z,0.50
2022-10-24T18:24:16.957Z,0.93
2022-10-24T18:28:18.639Z,0.70
2022-10-24T18:32:20.646Z,0.57
2022-10-24T18:36:24.632Z,0.70
2022-10-24T18:40:26.261Z,0.47
2022-10-24T18:44:30.868Z,0.50
2022-10-24T18:48:32.708Z,0.70
2022-10-24T18:52:48.919Z,0.43
2022-10-24T18:56:50.628Z,0.60
2022-10-24T19:00:54.250Z,0.60
2022-10-24T19:05:06.992Z,0.30
2022-10-24T19:09:19.771Z,0.60
2022-10-24T19:13:26.012Z,0.63
2022-10-24T19:17:27.512Z,0.50
2022-10-24T19:21:29.048Z,0.60
2022-10-24T19:25:31.643Z,0.68
2022-10-24T19:29:33.052Z,0.60
2022-10-24T19:33:34.663Z,0.50
2022-10-24T19:37:37.051Z,0.63
2022-10-24T19:41:38.522Z,0.50
2022-10-24T19:45:49.794Z,0.65
2022-10-24T19:49:56.670Z,0.47
2022-10-24T19:53:58.306Z,0.55
2022-10-24T19:57:59.711Z,0.50
2022-10-24T20:02:01.238Z,0.50
2022-10-24T20:06:02.897Z,0.50
2022-10-24T20:10:04.870Z,0.35
2022-10-24T20:14:06.674Z,0.40
2022-10-24T20:18:08.176Z,0.40
2022-10-24T20:22:09.587Z,0.45
2022-10-24T20:26:14.784Z,0.40
2022-10-24T20:30:16.286Z,0.43
2022-10-24T20:34:17.768Z,0.40
2022-10-24T20:38:19.279Z,0.68
2022-10-24T20:42:22.184Z,0.40
2022-10-24T20:46:23.976Z,0.50
2022-10-24T20:50:25.431Z,0.55
2022-10-24T20:54:26.868Z,0.30
2022-10-24T20:58:28.271Z,0.60
2022-10-24T21:02:29.843Z,0.28
2022-10-24T21:06:33.251Z,0.47
2022-10-24T21:10:34.654Z,0.30
2022-10-24T21:14:36.138Z,0.50
2022-10-24T21:18:37.965Z,0.50
2022-10-24T21:22:39.549Z,0.55
2022-10-24T21:26:41.500Z,0.80
2022-10-24T21:30:42.891Z,0.40
2022-10-24T21:34:44.311Z,0.50
2022-10-24T21:38:47.008Z,0.47
2022-10-24T21:42:48.889Z,0.43
2022-10-24T21:46:51.862Z,0.70
2022-10-24T21:50:53.279Z,0.40
2022-10-24T21:54:54.879Z,0.40
2022-10-24T22:03:07.992Z,0.32
2022-10-24T22:07:09.387Z,0.47
2022-10-24T22:11:14.187Z,0.65
2022-10-24T22:15:15.881Z,0.40
2022-10-24T22:19:19.616Z,0.50
2022-10-24T22:23:21.105Z,0.65
2022-10-24T22:27:22.487Z,0.45
2022-10-24T22:31:26.103Z,0.65
2022-10-24T22:35:27.819Z,0.77
2022-10-24T22:39:29.585Z,0.40
2022-10-24T22:43:31.311Z,0.75
2022-10-24T22:47:52.271Z,0.82
2022-10-24T22:51:53.965Z,0.70
2022-10-24T22:56:15.013Z,0.52
2022-10-24T23:00:17.143Z,0.77
2022-10-24T23:04:50.917Z,1.00
2022-10-24T23:08:52.318Z,0.75
2022-10-24T23:12:54.118Z,0.80
2022-10-24T23:16:58.754Z,0.77
2022-10-24T23:21:21.488Z,0.90
2022-10-24T23:25:23.290Z,0.50
2022-10-24T23:29:30.484Z,0.70
2022-10-24T23:33:32.179Z,0.93
2022-10-24T23:37:46.307Z,0.85
2022-10-24T23:41:48.035Z,1.02
2022-10-24T23:45:59.263Z,0.93
2022-10-24T23:50:10.000Z,0.85
2022-10-24T23:54:13.126Z,1.00
2022-10-24T23:58:14.569Z,0.93
